ΕΜΥ, Εθνική Μετεωρολογική Υπηρεσία - Δελτία Καιρού, Προγνώσεις

ΑΕΡΟΝΑΥΤΙΛΙΑ

GREEK AIRPORTS CODES

LGML 251600Z 35006KT CAVOK 25/14 Q1018=

EUROPEAN AIRPORTS CODES

LFPO 251830Z 21005KT CAVOK 21/16 Q1014 TEMPO SHRA BKN040TCU=